sensor_id;sensor_type;location;lat;lon;timestamp;pressure;altitude;pressure_sealevel;temperature;humidity
28181;BME280;15464;50.988;10.318;2023-02-19T00:01:28;99001.66;;;8.12;100.00
28181;BME280;15464;50.988;10.318;2023-02-19T00:03:57;98993.84;;;8.10;100.00
28181;BME280;15464;50.988;10.318;2023-02-19T00:06:29;98991.31;;;8.08;100.00
28181;BME280;15464;50.988;10.318;2023-02-19T00:08:56;98983.38;;;8.08;100.00
28181;BME280;15464;50.988;10.318;2023-02-19T00:11:26;98983.47;;;8.07;100.00
28181;BME280;15464;50.988;10.318;2023-02-19T00:13:54;98965.84;;;8.07;100.00
28181;BME280;15464;50.988;10.318;2023-02-19T00:16:25;98976.41;;;8.07;100.00
28181;BME280;15464;50.988;10.318;2023-02-19T00:18:53;98974.50;;;8.09;100.00
28181;BME280;15464;50.988;10.318;2023-02-19T00:21:20;98964.44;;;8.15;100.00
28181;BME280;15464;50.988;10.318;2023-02-19T00:23:51;98963.09;;;8.09;100.00
28181;BME280;15464;50.988;10.318;2023-02-19T00:26:18;98937.53;;;8.09;100.00
28181;BME280;15464;50.988;10.318;2023-02-19T00:28:46;98941.97;;;8.09;100.00
28181;BME280;15464;50.988;10.318;2023-02-19T00:33:40;98940.66;;;8.15;100.00
28181;BME280;15464;50.988;10.318;2023-02-19T00:36:07;98921.41;;;8.13;100.00
28181;BME280;15464;50.988;10.318;2023-02-19T00:38:38;98915.91;;;8.16;100.00
28181;BME280;15464;50.988;10.318;2023-02-19T00:41:05;98922.28;;;8.13;100.00
28181;BME280;15464;50.988;10.318;2023-02-19T00:46:16;98919.50;;;8.15;100.00
28181;BME280;15464;50.988;10.318;2023-02-19T00:48:44;98916.66;;;8.18;100.00
28181;BME280;15464;50.988;10.318;2023-02-19T00:51:11;98931.53;;;8.19;100.00
28181;BME280;15464;50.988;10.318;2023-02-19T00:53:38;98930.34;;;8.12;100.00
28181;BME280;15464;50.988;10.318;2023-02-19T00:56:08;98942.56;;;8.13;100.00
28181;BME280;15464;50.988;10.318;2023-02-19T00:58:34;98937.06;;;8.16;100.00
28181;BME280;15464;50.988;10.318;2023-02-19T01:01:02;98933.47;;;8.17;100.00
28181;BME280;15464;50.988;10.318;2023-02-19T01:03:29;98918.44;;;8.17;100.00
28181;BME280;15464;50.988;10.318;2023-02-19T01:05:56;98920.97;;;8.19;100.00
28181;BME280;15464;50.988;10.318;2023-02-19T01:08:23;98920.97;;;8.19;100.00
28181;BME280;15464;50.988;10.318;2023-02-19T01:10:49;98907.63;;;8.20;100.00
28181;BME280;15464;50.988;10.318;2023-02-19T01:13:17;98908.47;;;8.21;100.00
28181;BME280;15464;50.988;10.318;2023-02-19T01:15:44;98905.47;;;8.25;100.00
28181;BME280;15464;50.988;10.318;2023-02-19T01:18:10;98895.53;;;8.29;100.00
28181;BME280;15464;50.988;10.318;2023-02-19T01:20:39;98891.31;;;8.26;100.00
28181;BME280;15464;50.988;10.318;2023-02-19T01:23:07;98890.47;;;8.26;100.00
28181;BME280;15464;50.988;10.318;2023-02-19T01:25:34;98890.25;;;8.29;100.00
28181;BME280;15464;50.988;10.318;2023-02-19T01:28:03;98897.69;;;8.24;100.00
28181;BME280;15464;50.988;10.318;2023-02-19T01:30:30;98883.69;;;8.34;100.00
28181;BME280;15464;50.988;10.318;2023-02-19T01:32:59;98880.53;;;8.29;100.00
28181;BME280;15464;50.988;10.318;2023-02-19T01:35:25;98880.63;;;8.28;100.00
28181;BME280;15464;50.988;10.318;2023-02-19T01:37:52;98876.41;;;8.25;100.00
28181;BME280;15464;50.988;10.318;2023-02-19T01:40:19;98880.25;;;8.21;100.00
28181;BME280;15464;50.988;10.318;2023-02-19T01:42:45;98889.50;;;8.27;100.00
28181;BME280;15464;50.988;10.318;2023-02-19T01:47:53;98879.19;;;8.24;100.00
28181;BME280;15464;50.988;10.318;2023-02-19T01:50:21;98880.63;;;8.28;100.00
28181;BME280;15464;50.988;10.318;2023-02-19T01:52:48;98879.91;;;8.26;100.00
28181;BME280;15464;50.988;10.318;2023-02-19T01:55:15;98860.56;;;8.25;100.00
28181;BME280;15464;50.988;10.318;2023-02-19T01:57:45;98871.75;;;8.18;100.00
28181;BME280;15464;50.988;10.318;2023-02-19T02:00:14;98866.94;;;8.12;100.00
28181;BME280;15464;50.988;10.318;2023-02-19T02:02:44;98854.91;;;8.07;100.00
28181;BME280;15464;50.988;10.318;2023-02-19T02:08:04;98847.72;;;8.09;100.00
28181;BME280;15464;50.988;10.318;2023-02-19T02:10:49;98844.22;;;8.09;100.00
28181;BME280;15464;50.988;10.318;2023-02-19T02:13:17;98846.28;;;8.05;100.00
28181;BME280;15464;50.988;10.318;2023-02-19T02:32:25;98811.31;;;8.13;100.00
28181;BME280;15464;50.988;10.318;2023-02-19T02:35:09;98817.69;;;8.10;100.00
28181;BME280;15464;50.988;10.318;2023-02-19T02:37:38;98814.09;;;8.12;100.00
28181;BME280;15464;50.988;10.318;2023-02-19T02:40:07;98830.41;;;8.05;100.00
28181;BME280;15464;50.988;10.318;2023-02-19T02:42:34;98825.94;;;8.06;100.00
28181;BME280;15464;50.988;10.318;2023-02-19T02:50:39;98822.59;;;7.93;100.00
28181;BME280;15464;50.988;10.318;2023-02-19T02:53:12;98806.88;;;7.91;100.00
28181;BME280;15464;50.988;10.318;2023-02-19T02:56:00;98815.75;;;7.90;100.00
28181;BME280;15464;50.988;10.318;2023-02-19T02:58:28;98819.81;;;7.94;100.00
28181;BME280;15464;50.988;10.318;2023-02-19T03:01:17;98817.31;;;7.93;100.00
28181;BME280;15464;50.988;10.318;2023-02-19T03:04:06;98817.16;;;7.94;100.00
28181;BME280;15464;50.988;10.318;2023-02-19T03:06:35;98808.91;;;7.99;100.00
28181;BME280;15464;50.988;10.318;2023-02-19T03:09:10;98809.75;;;7.99;100.00
28181;BME280;15464;50.988;10.318;2023-02-19T03:11:40;98810.72;;;7.98;100.00
28181;BME280;15464;50.988;10.318;2023-02-19T03:14:34;98801.84;;;7.99;100.00
28181;BME280;15464;50.988;10.318;2023-02-19T03:17:26;98795.34;;;8.03;100.00
28181;BME280;15464;50.988;10.318;2023-02-19T03:20:15;98802.06;;;8.07;100.00
28181;BME280;15464;50.988;10.318;2023-02-19T03:22:45;98801.97;;;8.09;100.00
28181;BME280;15464;50.988;10.318;2023-02-19T03:25:16;98796.78;;;8.07;100.00
28181;BME280;15464;50.988;10.318;2023-02-19T03:28:06;98792.22;;;8.09;100.00
28181;BME280;15464;50.988;10.318;2023-02-19T03:30:45;98790.19;;;8.13;100.00
28181;BME280;15464;50.988;10.318;2023-02-19T03:33:15;98787.69;;;8.12;100.00
28181;BME280;15464;50.988;10.318;2023-02-19T03:35:47;98782.41;;;8.12;100.00
28181;BME280;15464;50.988;10.318;2023-02-19T03:38:20;98779.97;;;8.08;100.00
28181;BME280;15464;50.988;10.318;2023-02-19T03:40:59;98778.91;;;8.11;100.00
28181;BME280;15464;50.988;10.318;2023-02-19T03:43:41;98779.03;;;8.09;100.00
28181;BME280;15464;50.988;10.318;2023-02-19T03:46:16;98778.28;;;8.07;100.00
28181;BME280;15464;50.988;10.318;2023-02-19T03:49:02;98775.91;;;8.04;100.00
28181;BME280;15464;50.988;10.318;2023-02-19T03:51:37;98779.25;;;8.06;100.00
28181;BME280;15464;50.988;10.318;2023-02-19T03:54:37;98778.66;;;8.03;100.00
28181;BME280;15464;50.988;10.318;2023-02-19T03:57:19;98774.59;;;7.99;100.00
28181;BME280;15464;50.988;10.318;2023-02-19T04:05:28;98776.13;;;8.01;100.00
28181;BME280;15464;50.988;10.318;2023-02-19T04:07:59;98773.97;;;8.06;100.00
28181;BME280;15464;50.988;10.318;2023-02-19T04:10:28;98767.13;;;8.15;100.00
28181;BME280;15464;50.988;10.318;2023-02-19T04:12:59;98787.69;;;8.12;100.00
28181;BME280;15464;50.988;10.318;2023-02-19T04:15:30;98783.47;;;8.09;100.00
28181;BME280;15464;50.988;10.318;2023-02-19T04:18:06;98787.69;;;8.12;100.00
28181;BME280;15464;50.988;10.318;2023-02-19T04:20:43;98790.53;;;8.08;100.00
28181;BME280;15464;50.988;10.318;2023-02-19T04:23:11;98780.94;;;8.19;100.00
28181;BME280;15464;50.988;10.318;2023-02-19T04:25:41;98783.94;;;8.14;100.00
28181;BME280;15464;50.988;10.318;2023-02-19T04:28:09;98778.66;;;8.14;100.00
28181;BME280;15464;50.988;10.318;2023-02-19T04:30:36;98778.28;;;8.19;100.00
28181;BME280;15464;50.988;10.318;2023-02-19T04:33:02;98796.94;;;8.17;100.00
28181;BME280;15464;50.988;10.318;2023-02-19T04:35:29;98791.03;;;8.14;100.00
28181;BME280;15464;50.988;10.318;2023-02-19T04:37:56;98785.75;;;8.14;100.00
28181;BME280;15464;50.988;10.318;2023-02-19T04:40:22;98791.28;;;8.10;100.00
28181;BME280;15464;50.988;10.318;2023-02-19T04:42:49;98782.41;;;8.12;100.00
28181;BME280;15464;50.988;10.318;2023-02-19T04:45:16;98786.34;;;8.17;100.00
28181;BME280;15464;50.988;10.318;2023-02-19T04:47:43;98787.44;;;8.15;100.00
28181;BME280;15464;50.988;10.318;2023-02-19T04:50:10;98795.34;;;8.15;100.00
28181;BME280;15464;50.988;10.318;2023-02-19T04:52:36;98801.59;;;8.14;100.00
28181;BME280;15464;50.988;10.318;2023-02-19T04:55:05;98808.81;;;8.12;100.00
28181;BME280;15464;50.988;10.318;2023-02-19T04:57:31;98805.66;;;8.06;100.00
28181;BME280;15464;50.988;10.318;2023-02-19T04:59:58;98813.72;;;8.05;100.00
28181;BME280;15464;50.988;10.318;2023-02-19T05:02:25;98820.66;;;8.06;100.00
28181;BME280;15464;50.988;10.318;2023-02-19T05:04:51;98811.19;;;8.03;100.00
28181;BME280;15464;50.988;10.318;2023-02-19T05:07:18;98821.97;;;8.00;100.00
28181;BME280;15464;50.988;10.318;2023-02-19T05:09:44;98822.72;;;8.02;100.00
28181;BME280;15464;50.988;10.318;2023-02-19T05:12:11;98826.09;;;8.04;100.00
28181;BME280;15464;50.988;10.318;2023-02-19T05:14:38;98836.41;;;8.07;100.00
28181;BME280;15464;50.988;10.318;2023-02-19T05:17:04;98849.88;;;8.04;100.00
28181;BME280;15464;50.988;10.318;2023-02-19T05:19:31;98857.03;;;7.91;100.00
28181;BME280;15464;50.988;10.318;2023-02-19T05:21:58;98851.75;;;7.91;100.00
28181;BME280;15464;50.988;10.318;2023-02-19T05:24:24;98854.63;;;7.88;100.00
28181;BME280;15464;50.988;10.318;2023-02-19T05:26:52;98865.41;;;7.85;100.00
28181;BME280;15464;50.988;10.318;2023-02-19T05:29:19;98860.63;;;7.90;100.00
28181;BME280;15464;50.988;10.318;2023-02-19T05:31:46;98855.47;;;7.89;100.00
28181;BME280;15464;50.988;10.318;2023-02-19T05:34:14;98867.31;;;7.83;100.00
28181;BME280;15464;50.988;10.318;2023-02-19T05:36:40;98868.63;;;7.78;100.00
28181;BME280;15464;50.988;10.318;2023-02-19T05:39:10;98874.97;;;7.75;100.00
28181;BME280;15464;50.988;10.318;2023-02-19T05:41:36;98877.13;;;7.70;100.00
28181;BME280;15464;50.988;10.318;2023-02-19T05:44:04;98887.69;;;7.70;100.00
28181;BME280;15464;50.988;10.318;2023-02-19T05:46:31;98901.63;;;7.72;100.00
28181;BME280;15464;50.988;10.318;2023-02-19T05:48:58;98886.50;;;7.74;100.00
28181;BME280;15464;50.988;10.318;2023-02-19T05:51:25;98893.69;;;7.72;100.00
28181;BME280;15464;50.988;10.318;2023-02-19T05:53:52;98893.69;;;7.72;100.00
28181;BME280;15464;50.988;10.318;2023-02-19T05:58:52;98900.88;;;7.70;100.00
28181;BME280;15464;50.988;10.318;2023-02-19T06:01:20;98909.25;;;7.64;100.00
28181;BME280;15464;50.988;10.318;2023-02-19T06:03:48;98910.94;;;7.65;100.00
28181;BME280;15464;50.988;10.318;2023-02-19T06:06:16;98913.38;;;7.68;100.00
28181;BME280;15464;50.988;10.318;2023-02-19T06:08:43;98919.81;;;7.64;100.00
28181;BME280;15464;50.988;10.318;2023-02-19T06:11:10;98926.03;;;7.63;100.00
28181;BME280;15464;50.988;10.318;2023-02-19T06:13:37;98924.25;;;7.63;100.00
28181;BME280;15464;50.988;10.318;2023-02-19T06:16:05;98924.25;;;7.63;100.00
28181;BME280;15464;50.988;10.318;2023-02-19T06:18:33;98931.84;;;7.68;100.00
28181;BME280;15464;50.988;10.318;2023-02-19T06:21:04;98923.19;;;7.66;100.00
28181;BME280;15464;50.988;10.318;2023-02-19T06:23:31;98927.22;;;7.59;100.00
28181;BME280;15464;50.988;10.318;2023-02-19T06:26:21;98934.53;;;7.55;100.00
28181;BME280;15464;50.988;10.318;2023-02-19T06:28:50;98939.94;;;7.54;100.00
28181;BME280;15464;50.988;10.318;2023-02-19T06:31:19;98940.28;;;7.49;100.00
28181;BME280;15464;50.988;10.318;2023-02-19T06:33:46;98935.00;;;7.49;100.00
28181;BME280;15464;50.988;10.318;2023-02-19T06:36:15;98938.25;;;7.53;100.00
28181;BME280;15464;50.988;10.318;2023-02-19T06:38:42;98944.56;;;7.50;100.00
28181;BME280;15464;50.988;10.318;2023-02-19T06:41:09;98950.94;;;7.48;100.00
28181;BME280;15464;50.988;10.318;2023-02-19T06:43:37;98954.28;;;7.50;100.00
28181;BME280;15464;50.988;10.318;2023-02-19T06:46:05;98963.78;;;7.52;100.00
28181;BME280;15464;50.988;10.318;2023-02-19T06:48:33;98965.88;;;7.60;100.00
28181;BME280;15464;50.988;10.318;2023-02-19T06:51:00;98965.25;;;7.56;100.00
28181;BME280;15464;50.988;10.318;2023-02-19T06:53:26;98971.38;;;7.57;100.00
28181;BME280;15464;50.988;10.318;2023-02-19T06:55:58;98974.53;;;7.62;100.00
28181;BME280;15464;50.988;10.318;2023-02-19T06:58:25;98986.53;;;7.66;100.00
28181;BME280;15464;50.988;10.318;2023-02-19T07:00:52;98978.97;;;7.61;100.00
28181;BME280;15464;50.988;10.318;2023-02-19T07:03:20;98977.19;;;7.62;100.00
28181;BME280;15464;50.988;10.318;2023-02-19T07:05:46;98985.09;;;7.62;100.00
28181;BME280;15464;50.988;10.318;2023-02-19T07:08:13;98986.66;;;7.64;100.00
28181;BME280;15464;50.988;10.318;2023-02-19T07:10:43;98980.53;;;7.64;100.00
28181;BME280;15464;50.988;10.318;2023-02-19T07:13:10;98990.25;;;7.63;100.00
28181;BME280;15464;50.988;10.318;2023-02-19T07:15:37;99004.06;;;7.67;100.00
28181;BME280;15464;50.988;10.318;2023-02-19T07:18:03;99000.25;;;7.71;100.00
28181;BME280;15464;50.988;10.318;2023-02-19T07:20:32;99002.78;;;7.73;100.00
28181;BME280;15464;50.988;10.318;2023-02-19T07:22:59;99006.97;;;7.75;100.00
28181;BME280;15464;50.988;10.318;2023-02-19T07:25:25;99014.69;;;7.78;100.00
28181;BME280;15464;50.988;10.318;2023-02-19T07:27:52;99011.22;;;7.78;100.00
28181;BME280;15464;50.988;10.318;2023-02-19T07:30:19;99017.34;;;7.78;100.00
28181;BME280;15464;50.988;10.318;2023-02-19T07:32:45;99017.09;;;7.81;100.00
28181;BME280;15464;50.988;10.318;2023-02-19T07:35:12;99023.00;;;7.85;100.00
28181;BME280;15464;50.988;10.318;2023-02-19T07:37:40;99022.78;;;7.88;100.00
28181;BME280;15464;50.988;10.318;2023-02-19T07:40:07;99034.19;;;7.88;100.00
28181;BME280;15464;50.988;10.318;2023-02-19T07:42:33;99046.69;;;7.86;100.00
28181;BME280;15464;50.988;10.318;2023-02-19T07:45:00;99052.66;;;7.88;100.00
28181;BME280;15464;50.988;10.318;2023-02-19T07:47:28;99055.53;;;7.85;100.00
28181;BME280;15464;50.988;10.318;2023-02-19T07:49:54;99063.66;;;7.82;100.00
28181;BME280;15464;50.988;10.318;2023-02-19T07:52:21;99057.69;;;7.80;100.00
28181;BME280;15464;50.988;10.318;2023-02-19T07:54:47;99076.66;;;7.85;100.00
28181;BME280;15464;50.988;10.318;2023-02-19T07:57:14;99074.09;;;7.96;100.00
28181;BME280;15464;50.988;10.318;2023-02-19T07:59:41;99077.28;;;7.89;100.00
28181;BME280;15464;50.988;10.318;2023-02-19T08:02:14;99079.81;;;7.90;100.00
28181;BME280;15464;50.988;10.318;2023-02-19T08:05:01;99091.88;;;7.82;100.00
28181;BME280;15464;50.988;10.318;2023-02-19T08:07:34;99101.28;;;7.86;100.00
28181;BME280;15464;50.988;10.318;2023-02-19T08:10:02;99100.19;;;7.88;100.00
28181;BME280;15464;50.988;10.318;2023-02-19T08:13:11;99102.34;;;7.83;100.00
28181;BME280;15464;50.988;10.318;2023-02-19T08:15:54;99106.66;;;7.84;100.00
28181;BME280;15464;50.988;10.318;2023-02-19T08:18:33;99123.75;;;7.91;100.00
28181;BME280;15464;50.988;10.318;2023-02-19T08:20:59;99114.91;;;7.92;100.00
28181;BME280;15464;50.988;10.318;2023-02-19T08:23:27;99123.31;;;7.97;100.00
28181;BME280;15464;50.988;10.318;2023-02-19T08:25:57;99125.63;;;8.02;100.00
28181;BME280;15464;50.988;10.318;2023-02-19T08:28:23;99122.44;;;8.09;100.00
28181;BME280;15464;50.988;10.318;2023-02-19T08:30:50;99128.06;;;8.05;100.00
28181;BME280;15464;50.988;10.318;2023-02-19T08:33:19;99134.69;;;8.10;100.00
28181;BME280;15464;50.988;10.318;2023-02-19T08:35:46;99133.94;;;8.08;100.00
28181;BME280;15464;50.988;10.318;2023-02-19T08:38:13;99134.81;;;8.09;100.00
28181;BME280;15464;50.988;10.318;2023-02-19T08:40:42;99148.41;;;8.16;100.00
28181;BME280;15464;50.988;10.318;2023-02-19T08:43:10;99150.72;;;8.20;100.00
28181;BME280;15464;50.988;10.318;2023-02-19T08:45:40;99160.13;;;8.24;100.00
28181;BME280;15464;50.988;10.318;2023-02-19T08:48:08;99160.22;;;8.23;100.00
28181;BME280;15464;50.988;10.318;2023-02-19T08:50:34;99166.66;;;8.19;100.00
28181;BME280;15464;50.988;10.318;2023-02-19T08:53:03;99162.38;;;8.18;100.00
28181;BME280;15464;50.988;10.318;2023-02-19T08:55:29;99158.97;;;8.16;100.00
28181;BME280;15464;50.988;10.318;2023-02-19T08:57:56;99160.44;;;8.20;100.00
28181;BME280;15464;50.988;10.318;2023-02-19T09:00:23;99161.91;;;8.24;99.95
28181;BME280;15464;50.988;10.318;2023-02-19T09:02:50;99161.28;;;8.33;98.17
28181;BME280;15464;50.988;10.318;2023-02-19T09:05:17;99163.03;;;8.45;98.62
28181;BME280;15464;50.988;10.318;2023-02-19T09:07:44;99154.63;;;8.51;96.93
28181;BME280;15464;50.988;10.318;2023-02-19T09:10:12;99166.44;;;8.58;98.12
28181;BME280;15464;50.988;10.318;2023-02-19T09:12:39;99171.28;;;8.64;96.70
28181;BME280;15464;50.988;10.318;2023-02-19T09:15:07;99180.25;;;8.74;95.98
28181;BME280;15464;50.988;10.318;2023-02-19T09:17:33;99178.81;;;8.81;96.92
28181;BME280;15464;50.988;10.318;2023-02-19T09:20:00;99185.63;;;8.73;96.45
28181;BME280;15464;50.988;10.318;2023-02-19T09:22:27;99181.25;;;8.61;95.99
28181;BME280;15464;50.988;10.318;2023-02-19T09:24:54;99185.69;;;8.60;96.01
28181;BME280;15464;50.988;10.318;2023-02-19T09:27:20;99191.19;;;8.57;96.14
28181;BME280;15464;50.988;10.318;2023-02-19T09:29:47;99185.91;;;8.57;97.32
28181;BME280;15464;50.988;10.318;2023-02-19T09:32:14;99201.91;;;8.56;96.03
28181;BME280;15464;50.988;10.318;2023-02-19T09:34:42;99206.06;;;8.47;96.95
28181;BME280;15464;50.988;10.318;2023-02-19T09:37:09;99213.97;;;8.47;96.59
28181;BME280;15464;50.988;10.318;2023-02-19T09:39:36;99199.91;;;8.46;95.11
28181;BME280;15464;50.988;10.318;2023-02-19T09:44:39;99209.75;;;8.44;96.85
28181;BME280;15464;50.988;10.318;2023-02-19T09:47:21;99213.47;;;8.42;96.43
28181;BME280;15464;50.988;10.318;2023-02-19T09:49:52;99209.66;;;8.46;97.35
28181;BME280;15464;50.988;10.318;2023-02-19T09:52:38;99208.69;;;8.47;97.09
28181;BME280;15464;50.988;10.318;2023-02-19T09:55:25;99208.16;;;8.55;97.04
28181;BME280;15464;50.988;10.318;2023-02-19T09:57:55;99221.13;;;8.58;96.91
28181;BME280;15464;50.988;10.318;2023-02-19T10:00:24;99221.97;;;8.58;96.31
28181;BME280;15464;50.988;10.318;2023-02-19T10:03:09;99228.72;;;8.62;95.95
28181;BME280;15464;50.988;10.318;2023-02-19T10:05:38;99233.69;;;8.67;95.51
28181;BME280;15464;50.988;10.318;2023-02-19T10:08:11;99234.97;;;8.61;95.92
28181;BME280;15464;50.988;10.318;2023-02-19T10:10:42;99247.06;;;8.53;97.95
28181;BME280;15464;50.988;10.318;2023-02-19T10:16:13;99279.00;;;8.49;100.00
28181;BME280;15464;50.988;10.318;2023-02-19T10:18:43;99284.09;;;8.15;100.00
28181;BME280;15464;50.988;10.318;2023-02-19T10:21:16;99295.09;;;7.83;100.00
28181;BME280;15464;50.988;10.318;2023-02-19T10:23:47;99294.91;;;7.86;100.00
28181;BME280;15464;50.988;10.318;2023-02-19T10:26:16;99311.38;;;7.77;100.00
28181;BME280;15464;50.988;10.318;2023-02-19T10:28:42;99322.59;;;7.81;100.00
28181;BME280;15464;50.988;10.318;2023-02-19T10:31:18;99318.31;;;7.65;100.00
28181;BME280;15464;50.988;10.318;2023-02-19T10:33:56;99324.88;;;7.60;100.00
28181;BME280;15464;50.988;10.318;2023-02-19T10:36:25;99332.25;;;7.55;100.00
28181;BME280;15464;50.988;10.318;2023-02-19T10:38:58;99342.47;;;7.47;100.00
28181;BME280;15464;50.988;10.318;2023-02-19T10:41:26;99339.06;;;7.45;100.00
28181;BME280;15464;50.988;10.318;2023-02-19T10:44:12;99352.88;;;7.36;100.00
28181;BME280;15464;50.988;10.318;2023-02-19T10:46:46;99364.47;;;7.33;100.00
28181;BME280;15464;50.988;10.318;2023-02-19T10:52:23;99375.59;;;7.11;100.00
28181;BME280;15464;50.988;10.318;2023-02-19T10:54:54;99365.03;;;7.11;100.00
28181;BME280;15464;50.988;10.318;2023-02-19T10:57:27;99374.53;;;7.14;100.00
28181;BME280;15464;50.988;10.318;2023-02-19T11:00:02;99387.63;;;7.15;100.00
28181;BME280;15464;50.988;10.318;2023-02-19T11:02:44;99389.69;;;7.24;100.00
28181;BME280;15464;50.988;10.318;2023-02-19T11:07:53;99404.63;;;6.97;100.00
28181;BME280;15464;50.988;10.318;2023-02-19T11:10:29;99402.94;;;6.96;100.00
28181;BME280;15464;50.988;10.318;2023-02-19T11:13:12;99409.50;;;7.03;100.00
28181;BME280;15464;50.988;10.318;2023-02-19T11:15:40;99414.97;;;7.00;100.00
28181;BME280;15464;50.988;10.318;2023-02-19T11:20:57;99422.69;;;7.17;100.00
28181;BME280;15464;50.988;10.318;2023-02-19T11:23:37;99431.13;;;7.22;100.00
28181;BME280;15464;50.988;10.318;2023-02-19T11:26:21;99444.13;;;7.25;100.00
28181;BME280;15464;50.988;10.318;2023-02-19T11:28:57;99440.16;;;7.33;100.00
28181;BME280;15464;50.988;10.318;2023-02-19T11:31:26;99442.94;;;7.44;100.00
28181;BME280;15464;50.988;10.318;2023-02-19T11:36:40;99437.47;;;7.47;100.00
28181;BME280;15464;50.988;10.318;2023-02-19T11:55:12;99428.59;;;7.75;100.00
28181;BME280;15464;50.988;10.318;2023-02-19T12:00:48;99439.81;;;7.78;100.00
28181;BME280;15464;50.988;10.318;2023-02-19T12:23:51;99448.75;;;8.02;100.00
28181;BME280;15464;50.988;10.318;2023-02-19T12:26:26;99457.72;;;8.13;99.81
28181;BME280;15464;50.988;10.318;2023-02-19T12:37:25;99449.19;;;8.22;98.27
28181;BME280;15464;50.988;10.318;2023-02-19T12:48:35;99441.16;;;8.23;93.58
28181;BME280;15464;50.988;10.318;2023-02-19T12:51:21;99440.50;;;8.07;94.74
28181;BME280;15464;50.988;10.318;2023-02-19T12:53:59;99437.56;;;8.12;93.51
28181;BME280;15464;50.988;10.318;2023-02-19T12:56:34;99453.19;;;8.15;94.73
28181;BME280;15464;50.988;10.318;2023-02-19T12:59:07;99452.44;;;8.13;93.51
28181;BME280;15464;50.988;10.318;2023-02-19T13:02:38;99452.31;;;8.01;94.06
28181;BME280;15464;50.988;10.318;2023-02-19T13:10:49;99469.28;;;8.12;91.99
28181;BME280;15464;50.988;10.318;2023-02-19T13:13:34;99465.66;;;8.13;91.65
28181;BME280;15464;50.988;10.318;2023-02-19T13:16:10;99475.19;;;8.15;92.63
28181;BME280;15464;50.988;10.318;2023-02-19T13:18:47;99472.63;;;8.14;93.56
28181;BME280;15464;50.988;10.318;2023-02-19T13:21:18;99477.72;;;8.17;93.76
28181;BME280;15464;50.988;10.318;2023-02-19T13:24:10;99467.19;;;8.29;93.45
28181;BME280;15464;50.988;10.318;2023-02-19T13:34:31;99492.50;;;8.46;92.73
28181;BME280;15464;50.988;10.318;2023-02-19T13:37:01;99493.03;;;8.76;92.10
28181;BME280;15464;50.988;10.318;2023-02-19T13:39:29;99494.63;;;8.66;90.17
28181;BME280;15464;50.988;10.318;2023-02-19T13:41:57;99499.91;;;8.66;90.59
28181;BME280;15464;50.988;10.318;2023-02-19T13:44:29;99500.94;;;8.51;90.32
28181;BME280;15464;50.988;10.318;2023-02-19T13:46:56;99507.75;;;8.55;91.08
28181;BME280;15464;50.988;10.318;2023-02-19T13:51:57;99520.50;;;8.36;90.93
28181;BME280;15464;50.988;10.318;2023-02-19T13:54:31;99522.59;;;8.31;91.79
28181;BME280;15464;50.988;10.318;2023-02-19T13:59:57;99527.00;;;8.18;91.45
28181;BME280;15464;50.988;10.318;2023-02-19T14:02:30;99530.97;;;8.10;91.60
28181;BME280;15464;50.988;10.318;2023-02-19T14:05:07;99532.13;;;8.06;91.63
28181;BME280;15464;50.988;10.318;2023-02-19T14:07:47;99545.72;;;8.00;91.93
28181;BME280;15464;50.988;10.318;2023-02-19T14:19:12;99551.19;;;7.70;94.53
28181;BME280;15464;50.988;10.318;2023-02-19T14:21:39;99543.66;;;7.79;95.61
28181;BME280;15464;50.988;10.318;2023-02-19T14:24:13;99537.28;;;7.81;95.27
28181;BME280;15464;50.988;10.318;2023-02-19T14:26:40;99537.88;;;7.86;95.43
28181;BME280;15464;50.988;10.318;2023-02-19T14:29:08;99538.94;;;7.69;94.62
28181;BME280;15464;50.988;10.318;2023-02-19T14:31:39;99526.19;;;7.76;95.24
28181;BME280;15464;50.988;10.318;2023-02-19T14:34:18;99529.94;;;7.86;95.41
28181;BME280;15464;50.988;10.318;2023-02-19T14:36:52;99527.09;;;7.89;93.90
28181;BME280;15464;50.988;10.318;2023-02-19T14:39:32;99530.84;;;7.73;93.44
28181;BME280;15464;50.988;10.318;2023-02-19T14:42:03;99532.25;;;7.64;94.15
28181;BME280;15464;50.988;10.318;2023-02-19T14:44:39;99532.09;;;7.67;93.89
28181;BME280;15464;50.988;10.318;2023-02-19T14:47:14;99536.06;;;7.60;93.68
28181;BME280;15464;50.988;10.318;2023-02-19T14:49:48;99538.38;;;7.64;93.08
28181;BME280;15464;50.988;10.318;2023-02-19T14:52:32;99538.66;;;7.74;93.49
28181;BME280;15464;50.988;10.318;2023-02-19T14:55:28;99543.72;;;7.77;94.05
28181;BME280;15464;50.988;10.318;2023-02-19T14:57:58;99543.94;;;7.74;94.11
28181;BME280;15464;50.988;10.318;2023-02-19T15:00:36;99540.34;;;7.75;94.13
28181;BME280;15464;50.988;10.318;2023-02-19T15:03:03;99547.53;;;7.73;93.80
28181;BME280;15464;50.988;10.318;2023-02-19T15:05:35;99556.38;;;7.72;93.53
28181;BME280;15464;50.988;10.318;2023-02-19T15:08:14;99560.19;;;7.68;93.40
28181;BME280;15464;50.988;10.318;2023-02-19T15:10:43;99558.88;;;7.61;92.75
28181;BME280;15464;50.988;10.318;2023-02-19T15:13:15;99564.25;;;7.59;92.79
28181;BME280;15464;50.988;10.318;2023-02-19T15:15:45;99568.13;;;7.54;92.33
28181;BME280;15464;50.988;10.318;2023-02-19T15:18:22;99557.09;;;7.47;92.94
28181;BME280;15464;50.988;10.318;2023-02-19T15:20:56;99555.31;;;7.48;92.86
28181;BME280;15464;50.988;10.318;2023-02-19T15:23:24;99573.22;;;7.43;93.08
28181;BME280;15464;50.988;10.318;2023-02-19T15:25:52;99575.00;;;7.42;93.17
28181;BME280;15464;50.988;10.318;2023-02-19T15:33:26;99593.97;;;7.35;93.97
28181;BME280;15464;50.988;10.318;2023-02-19T15:36:12;99589.81;;;7.16;94.54
28181;BME280;15464;50.988;10.318;2023-02-19T15:38:38;99587.34;;;7.13;95.13
28181;BME280;15464;50.988;10.318;2023-02-19T15:41:06;99580.97;;;7.17;94.86